createdAt,value
2022-09-14T00:01:40.097Z,16.00
2022-09-14T00:04:12.869Z,16.00
2022-09-14T00:06:42.479Z,15.90
2022-09-14T00:09:18.328Z,15.90
2022-09-14T00:11:48.117Z,15.90
2022-09-14T00:14:18.858Z,15.90
2022-09-14T00:16:46.083Z,15.90
2022-09-14T00:19:31.216Z,15.90
2022-09-14T00:21:59.232Z,15.90
2022-09-14T00:24:34.921Z,15.80
2022-09-14T00:27:04.127Z,15.80
2022-09-14T00:29:31.351Z,15.80
2022-09-14T00:31:58.714Z,15.80
2022-09-14T00:34:25.793Z,15.80
2022-09-14T00:36:53.100Z,15.70
2022-09-14T00:39:23.536Z,15.70
2022-09-14T00:41:51.816Z,15.70
2022-09-14T00:44:20.897Z,15.70
2022-09-14T00:46:50.722Z,15.70
2022-09-14T00:49:24.055Z,15.70
2022-09-14T00:52:10.529Z,15.60
2022-09-14T00:54:41.527Z,15.60
2022-09-14T00:57:08.554Z,15.60
2022-09-14T00:59:41.728Z,15.60
2022-09-14T01:02:10.918Z,15.60
2022-09-14T01:04:38.262Z,15.60
2022-09-14T01:07:38.503Z,15.50
2022-09-14T01:10:19.780Z,15.50
2022-09-14T01:13:15.633Z,15.50
2022-09-14T01:16:07.414Z,15.50
2022-09-14T01:18:46.718Z,15.50
2022-09-14T01:21:21.646Z,15.50
2022-09-14T01:24:11.993Z,15.50
2022-09-14T01:26:55.508Z,15.40
2022-09-14T01:29:35.185Z,15.50
2022-09-14T01:32:07.879Z,15.40
2022-09-14T01:34:37.073Z,15.40
2022-09-14T01:37:24.282Z,15.40
2022-09-14T01:40:02.429Z,15.40
2022-09-14T01:42:31.536Z,15.30
2022-09-14T01:45:03.124Z,15.30
2022-09-14T01:47:53.738Z,15.30
2022-09-14T01:50:31.311Z,15.30
2022-09-14T01:53:05.563Z,15.20
2022-09-14T01:55:48.931Z,15.20
2022-09-14T01:58:25.799Z,15.20
2022-09-14T02:00:56.024Z,15.20
2022-09-14T02:03:29.930Z,15.20
2022-09-14T02:06:34.521Z,15.10
2022-09-14T02:09:03.512Z,15.10
2022-09-14T02:11:34.968Z,15.10
2022-09-14T02:14:06.030Z,15.00
2022-09-14T02:16:32.983Z,15.10
2022-09-14T02:19:01.608Z,15.10
2022-09-14T02:21:33.139Z,15.00
2022-09-14T02:24:03.063Z,15.00
2022-09-14T02:26:30.257Z,15.00
2022-09-14T02:28:59.809Z,15.00
2022-09-14T02:32:08.030Z,15.00
2022-09-14T02:34:40.888Z,15.00
2022-09-14T02:37:24.466Z,14.90
2022-09-14T02:40:06.880Z,14.90
2022-09-14T02:43:11.636Z,14.90
2022-09-14T02:45:47.289Z,14.90
2022-09-14T02:48:29.658Z,14.90
2022-09-14T02:50:59.460Z,14.90
2022-09-14T02:53:48.828Z,14.90
2022-09-14T02:56:17.496Z,14.90
2022-09-14T02:58:45.403Z,14.90
2022-09-14T03:01:19.505Z,14.90
2022-09-14T03:03:46.523Z,14.90
2022-09-14T03:06:14.053Z,14.90
2022-09-14T03:08:40.936Z,14.80
2022-09-14T03:11:08.100Z,14.80
2022-09-14T03:13:35.775Z,14.80
2022-09-14T03:16:10.595Z,14.80
2022-09-14T03:18:38.240Z,14.80
2022-09-14T03:21:07.818Z,14.80
2022-09-14T03:23:46.151Z,14.80
2022-09-14T03:26:21.629Z,14.80
2022-09-14T03:28:55.626Z,14.80
2022-09-14T03:31:28.631Z,14.80
2022-09-14T03:33:57.885Z,14.80
2022-09-14T03:36:31.660Z,14.80
2022-09-14T03:39:01.641Z,14.70
2022-09-14T03:41:28.770Z,14.70
2022-09-14T03:43:57.648Z,14.70
2022-09-14T03:46:29.128Z,14.70
2022-09-14T03:48:58.287Z,14.70
2022-09-14T03:51:25.151Z,14.70
2022-09-14T03:53:54.458Z,14.70
2022-09-14T03:56:22.631Z,14.70
2022-09-14T03:58:52.040Z,14.60
2022-09-14T04:01:21.086Z,14.60
2022-09-14T04:03:48.120Z,14.60
2022-09-14T04:06:18.476Z,14.60
2022-09-14T04:09:10.955Z,14.60
2022-09-14T04:11:42.090Z,14.60
2022-09-14T04:14:08.895Z,14.60
2022-09-14T04:16:38.035Z,14.60
2022-09-14T04:19:10.402Z,14.60
2022-09-14T04:21:44.265Z,14.60
2022-09-14T04:24:15.505Z,14.50
2022-09-14T04:26:43.938Z,14.60
2022-09-14T04:29:12.308Z,14.50
2022-09-14T04:31:39.341Z,14.50
2022-09-14T04:34:06.518Z,14.50
2022-09-14T04:36:36.070Z,14.50
2022-09-14T04:39:03.679Z,14.50
2022-09-14T04:41:34.761Z,14.50
2022-09-14T04:44:01.669Z,14.50
2022-09-14T04:46:45.090Z,14.50
2022-09-14T04:49:18.628Z,14.50
2022-09-14T04:51:48.599Z,14.50
2022-09-14T04:54:18.303Z,14.50
2022-09-14T04:56:48.172Z,14.50
2022-09-14T04:59:15.415Z,14.50
2022-09-14T05:01:47.619Z,14.50
2022-09-14T05:04:15.074Z,14.50
2022-09-14T05:06:44.539Z,14.50
2022-09-14T05:09:17.119Z,14.50
2022-09-14T05:11:45.071Z,14.40
2022-09-14T05:14:13.386Z,14.40
2022-09-14T05:16:43.549Z,14.40
2022-09-14T05:19:17.641Z,14.50
2022-09-14T05:21:45.594Z,14.40
2022-09-14T05:24:17.981Z,14.50
2022-09-14T05:26:47.811Z,14.50
2022-09-14T05:29:20.388Z,14.50
2022-09-14T05:31:47.437Z,14.50
2022-09-14T05:34:19.365Z,14.50
2022-09-14T05:36:48.243Z,14.50
2022-09-14T05:39:22.528Z,14.60
2022-09-14T05:41:50.398Z,14.60
2022-09-14T05:44:17.760Z,14.60
2022-09-14T05:46:44.650Z,14.50
2022-09-14T05:49:11.474Z,14.60
2022-09-14T05:51:38.277Z,14.50
2022-09-14T05:54:10.181Z,14.50
2022-09-14T05:56:37.308Z,14.60
2022-09-14T05:59:04.432Z,14.60
2022-09-14T06:01:32.987Z,14.60
2022-09-14T06:04:02.458Z,14.60
2022-09-14T06:06:33.274Z,14.70
2022-09-14T06:09:00.675Z,14.70
2022-09-14T06:11:33.195Z,14.70
2022-09-14T06:14:00.490Z,14.70
2022-09-14T06:16:30.694Z,14.70
2022-09-14T06:19:01.361Z,14.70
2022-09-14T06:21:32.889Z,14.70
2022-09-14T06:24:00.145Z,14.70
2022-09-14T06:30:49.581Z,14.80
2022-09-14T06:33:17.794Z,14.80
2022-09-14T06:35:54.009Z,14.80
2022-09-14T06:38:21.536Z,14.80
2022-09-14T06:40:59.320Z,14.80
2022-09-14T06:43:28.159Z,14.90
2022-09-14T06:46:01.886Z,14.90
2022-09-14T06:48:41.202Z,15.00
2022-09-14T06:51:29.506Z,15.00
2022-09-14T06:54:00.071Z,15.10
2022-09-14T06:56:29.222Z,15.20
2022-09-14T06:58:57.388Z,15.20
2022-09-14T07:01:25.899Z,15.20
2022-09-14T07:03:53.755Z,15.20
2022-09-14T07:06:23.288Z,15.30
2022-09-14T07:08:51.453Z,15.30
2022-09-14T07:11:23.709Z,15.30
2022-09-14T07:13:54.636Z,15.30
2022-09-14T07:16:22.000Z,15.40
2022-09-14T07:18:52.317Z,15.30
2022-09-14T07:21:24.007Z,15.30
2022-09-14T07:23:51.484Z,15.30
2022-09-14T07:26:24.874Z,15.40
2022-09-14T07:28:55.975Z,15.40
2022-09-14T07:31:26.216Z,15.50
2022-09-14T07:33:58.449Z,15.50
2022-09-14T07:36:26.688Z,15.50
2022-09-14T07:38:54.139Z,15.50
2022-09-14T07:41:26.302Z,15.60
2022-09-14T07:44:00.272Z,15.60
2022-09-14T07:46:29.080Z,15.70
2022-09-14T07:49:01.883Z,15.90
2022-09-14T07:51:32.372Z,16.10
2022-09-14T07:54:02.552Z,16.40
2022-09-14T07:56:32.574Z,16.60
2022-09-14T07:59:23.764Z,16.70
2022-09-14T08:01:47.254Z,16.80
2022-09-14T08:04:14.059Z,16.80
2022-09-14T08:06:43.344Z,16.90
2022-09-14T08:09:10.362Z,16.90
2022-09-14T08:11:39.785Z,17.00
2022-09-14T08:14:12.378Z,17.10
2022-09-14T08:16:41.686Z,17.30
2022-09-14T08:19:13.613Z,17.60
2022-09-14T08:21:46.847Z,17.80
2022-09-14T08:24:21.966Z,18.10
2022-09-14T08:26:51.864Z,18.50
2022-09-14T08:29:21.176Z,18.90
2022-09-14T08:31:48.933Z,19.00
2022-09-14T08:34:17.222Z,19.10
2022-09-14T08:36:45.530Z,19.40
2022-09-14T08:39:18.287Z,19.80
2022-09-14T08:41:54.173Z,20.20
2022-09-14T08:44:24.148Z,20.60
2022-09-14T08:47:02.401Z,21.00
2022-09-14T08:49:54.712Z,21.20
2022-09-14T08:52:30.862Z,21.10
2022-09-14T08:55:03.330Z,21.20
2022-09-14T08:57:58.458Z,21.20
2022-09-14T09:00:38.903Z,20.90
2022-09-14T09:03:43.805Z,20.90
2022-09-14T09:06:29.538Z,20.60
2022-09-14T09:09:05.791Z,20.10
2022-09-14T09:11:46.978Z,19.60
2022-09-14T09:14:34.513Z,19.40
2022-09-14T09:17:10.684Z,19.10
2022-09-14T09:20:11.116Z,19.00
2022-09-14T09:22:46.641Z,18.90
2022-09-14T09:25:25.054Z,18.70
2022-09-14T09:28:01.732Z,18.70
2022-09-14T09:30:31.017Z,18.70
2022-09-14T09:33:04.366Z,18.70
2022-09-14T09:35:59.137Z,18.70
2022-09-14T09:38:39.531Z,18.50
2022-09-14T09:41:20.974Z,18.60
2022-09-14T09:44:10.959Z,18.90
2022-09-14T09:47:13.618Z,19.40
2022-09-14T09:49:46.808Z,19.50
2022-09-14T09:52:20.047Z,19.40
2022-09-14T09:54:55.276Z,19.20
2022-09-14T09:57:39.724Z,19.20
2022-09-14T10:00:31.327Z,19.20
2022-09-14T10:03:06.168Z,19.10
2022-09-14T10:05:41.318Z,19.00
2022-09-14T10:08:17.576Z,18.90
2022-09-14T10:10:48.800Z,18.80
2022-09-14T10:13:38.195Z,18.70
2022-09-14T10:16:32.449Z,18.60
2022-09-14T10:19:22.764Z,18.50
2022-09-14T10:22:24.253Z,18.60
2022-09-14T10:25:06.021Z,18.60
2022-09-14T10:28:00.524Z,18.60
2022-09-14T10:30:52.441Z,18.70
2022-09-14T10:33:30.429Z,18.70
2022-09-14T10:36:16.616Z,18.80
2022-09-14T10:39:14.905Z,18.80
2022-09-14T10:42:13.172Z,18.80
2022-09-14T10:44:55.733Z,18.80
2022-09-14T10:47:34.535Z,18.80
2022-09-14T10:50:16.636Z,18.80
2022-09-14T10:53:19.180Z,18.90
2022-09-14T10:56:17.658Z,18.90
2022-09-14T10:59:21.740Z,18.90
2022-09-14T11:02:07.132Z,18.90
2022-09-14T11:05:05.773Z,18.90
2022-09-14T11:07:52.018Z,18.90
2022-09-14T11:10:56.424Z,18.90
2022-09-14T11:13:33.367Z,19.00
2022-09-14T11:16:13.194Z,18.90
2022-09-14T11:18:56.835Z,18.90
2022-09-14T11:21:30.779Z,18.90
2022-09-14T11:24:29.359Z,18.90
2022-09-14T11:27:06.116Z,18.90
2022-09-14T11:29:48.873Z,19.00
2022-09-14T11:32:25.180Z,19.00
2022-09-14T11:34:59.936Z,19.00
2022-09-14T11:37:37.523Z,19.00
2022-09-14T11:40:39.474Z,19.00
2022-09-14T11:43:31.631Z,19.00
2022-09-14T11:46:18.076Z,19.10
2022-09-14T11:49:13.243Z,19.20
2022-09-14T11:51:50.334Z,19.20
2022-09-14T11:54:27.825Z,19.20
2022-09-14T11:57:08.890Z,19.30
2022-09-14T11:59:50.386Z,19.30
2022-09-14T12:02:24.081Z,19.30
2022-09-14T12:05:09.463Z,19.20
2022-09-14T12:07:43.155Z,19.10
2022-09-14T12:10:20.870Z,19.10
2022-09-14T12:13:10.445Z,19.10
2022-09-14T12:15:42.829Z,19.00
2022-09-14T12:18:13.960Z,19.10
2022-09-14T12:20:45.187Z,19.10
2022-09-14T12:23:41.577Z,19.10
2022-09-14T12:26:12.679Z,19.10
2022-09-14T12:28:43.880Z,19.10
2022-09-14T12:31:29.135Z,19.10
2022-09-14T12:34:34.757Z,19.10
2022-09-14T12:37:28.910Z,19.10
2022-09-14T12:40:24.119Z,19.00
2022-09-14T12:42:55.078Z,18.90
2022-09-14T12:45:49.767Z,19.00
2022-09-14T12:48:45.302Z,19.00
2022-09-14T12:51:48.588Z,19.00
2022-09-14T12:54:53.249Z,19.00
2022-09-14T12:57:39.801Z,19.00
2022-09-14T13:00:20.333Z,19.00
2022-09-14T13:03:18.391Z,19.10
2022-09-14T13:05:46.384Z,19.00
2022-09-14T13:08:25.917Z,19.10
2022-09-14T13:10:59.682Z,19.10
2022-09-14T13:13:37.280Z,19.10
2022-09-14T13:16:13.780Z,19.20
2022-09-14T13:18:47.464Z,19.20
2022-09-14T13:21:25.328Z,19.10
2022-09-14T13:23:52.902Z,19.10
2022-09-14T13:26:34.479Z,19.00
2022-09-14T13:29:05.233Z,19.00
2022-09-14T13:31:52.774Z,19.00
2022-09-14T13:34:40.487Z,18.90
2022-09-14T13:37:08.055Z,18.80
2022-09-14T13:39:37.954Z,18.80
2022-09-14T13:42:06.254Z,18.80
2022-09-14T13:44:45.187Z,18.80
2022-09-14T13:47:16.642Z,18.80
2022-09-14T13:49:45.320Z,18.80
2022-09-14T13:52:19.377Z,18.80
2022-09-14T13:54:53.287Z,18.80
2022-09-14T13:57:25.095Z,18.80
2022-09-14T14:00:20.441Z,18.80
2022-09-14T14:02:53.337Z,18.80
2022-09-14T14:05:30.265Z,18.80
2022-09-14T14:07:59.123Z,18.80
2022-09-14T14:10:31.914Z,18.80
2022-09-14T14:13:02.506Z,18.70
2022-09-14T14:15:45.384Z,18.70
2022-09-14T14:18:37.693Z,18.70
2022-09-14T14:21:21.536Z,18.70
2022-09-14T14:24:09.651Z,18.60
2022-09-14T14:26:36.017Z,18.60
2022-09-14T14:29:09.909Z,18.70
2022-09-14T14:31:36.789Z,18.70
2022-09-14T14:34:18.593Z,18.70
2022-09-14T14:36:49.997Z,18.70
2022-09-14T14:39:18.921Z,18.60
2022-09-14T14:41:46.594Z,18.60
2022-09-14T14:44:18.073Z,18.60
2022-09-14T14:46:47.459Z,18.60
2022-09-14T14:49:18.402Z,18.60
2022-09-14T14:51:45.556Z,18.60
2022-09-14T14:54:21.281Z,18.50
2022-09-14T14:56:51.523Z,18.50
2022-09-14T14:59:21.067Z,18.50
2022-09-14T15:01:49.964Z,18.50
2022-09-14T15:04:19.889Z,18.40
2022-09-14T15:06:47.596Z,18.40
2022-09-14T15:09:20.429Z,18.40
2022-09-14T15:11:50.612Z,18.40
2022-09-14T15:14:26.182Z,18.40
2022-09-14T15:16:59.939Z,18.30
2022-09-14T15:19:27.425Z,18.30
2022-09-14T15:21:57.382Z,18.30
2022-09-14T15:24:30.487Z,18.30
2022-09-14T15:26:57.938Z,18.30
2022-09-14T15:29:24.679Z,18.30
2022-09-14T15:31:51.489Z,18.30
2022-09-14T15:34:20.681Z,18.30
2022-09-14T15:36:57.410Z,18.30
2022-09-14T15:39:26.757Z,18.30
2022-09-14T15:41:56.322Z,18.30
2022-09-14T15:44:23.209Z,18.30
2022-09-14T15:46:51.529Z,18.30
2022-09-14T15:49:23.039Z,18.30
2022-09-14T15:51:56.726Z,18.20
2022-09-14T15:54:25.726Z,18.20
2022-09-14T15:57:00.019Z,18.20
2022-09-14T15:59:30.173Z,18.20
2022-09-14T16:01:59.573Z,18.20
2022-09-14T16:04:26.763Z,18.20
2022-09-14T16:06:54.146Z,18.20
2022-09-14T16:09:22.393Z,18.20
2022-09-14T16:11:49.783Z,18.20
2022-09-14T16:14:16.668Z,18.20
2022-09-14T16:16:49.090Z,18.20
2022-09-14T16:19:18.095Z,18.20
2022-09-14T16:21:44.957Z,18.10
2022-09-14T16:24:19.337Z,18.10
2022-09-14T16:26:46.548Z,18.10
2022-09-14T16:29:17.635Z,18.10
2022-09-14T16:31:47.201Z,18.10
2022-09-14T16:34:20.405Z,18.00
2022-09-14T16:36:50.239Z,18.00
2022-09-14T16:39:20.325Z,18.00
2022-09-14T16:41:47.323Z,18.00
2022-09-14T16:44:18.786Z,18.00
2022-09-14T16:46:46.273Z,18.00
2022-09-14T16:49:16.423Z,18.00
2022-09-14T16:51:45.667Z,18.00
2022-09-14T16:54:18.220Z,18.00
2022-09-14T16:56:47.596Z,18.00
2022-09-14T16:59:16.554Z,18.00
2022-09-14T17:01:45.387Z,17.90
2022-09-14T17:04:15.076Z,17.90
2022-09-14T17:06:43.938Z,17.90
2022-09-14T17:09:27.296Z,17.90
2022-09-14T17:11:57.128Z,17.90
2022-09-14T17:14:28.431Z,17.90
2022-09-14T17:16:55.576Z,17.80
2022-09-14T17:19:22.547Z,17.80
2022-09-14T17:21:49.679Z,17.80
2022-09-14T17:24:18.168Z,17.90
2022-09-14T17:26:45.623Z,17.80
2022-09-14T17:29:15.649Z,17.80
2022-09-14T17:31:44.571Z,17.80
2022-09-14T17:34:16.823Z,17.80
2022-09-14T17:36:46.324Z,17.80
2022-09-14T17:39:15.223Z,17.80
2022-09-14T17:41:42.993Z,17.70
2022-09-14T17:44:12.556Z,17.70
2022-09-14T17:46:48.245Z,17.70
2022-09-14T17:49:19.148Z,17.70
2022-09-14T17:51:49.115Z,17.70
2022-09-14T17:54:19.777Z,17.70
2022-09-14T17:56:46.827Z,17.70
2022-09-14T17:59:20.436Z,17.70
2022-09-14T18:01:48.890Z,17.70
2022-09-14T18:04:16.791Z,17.70
2022-09-14T18:06:48.281Z,17.60
2022-09-14T18:09:21.713Z,17.60
2022-09-14T18:11:50.215Z,17.60
2022-09-14T18:14:17.414Z,17.60
2022-09-14T18:16:47.076Z,17.60
2022-09-14T18:19:15.071Z,17.60
2022-09-14T18:21:48.928Z,17.60
2022-09-14T18:24:18.906Z,17.60
2022-09-14T18:26:46.374Z,17.50
2022-09-14T18:29:20.995Z,17.50
2022-09-14T18:31:48.136Z,17.50
2022-09-14T18:34:17.736Z,17.50
2022-09-14T18:36:47.361Z,17.50
2022-09-14T18:39:18.874Z,17.50
2022-09-14T18:41:46.066Z,17.50
2022-09-14T18:44:15.138Z,17.50
2022-09-14T18:46:55.438Z,17.50
2022-09-14T18:49:22.588Z,17.50
2022-09-14T18:51:52.272Z,17.50
2022-09-14T18:54:24.251Z,17.40
2022-09-14T18:56:54.313Z,17.40
2022-09-14T18:59:23.787Z,17.40
2022-09-14T19:01:51.155Z,17.40
2022-09-14T19:04:20.465Z,17.40
2022-09-14T19:06:49.692Z,17.40
2022-09-14T19:09:19.833Z,17.40
2022-09-14T19:11:46.620Z,17.40
2022-09-14T19:14:13.814Z,17.30
2022-09-14T19:16:41.840Z,17.30
2022-09-14T19:19:15.645Z,17.30
2022-09-14T19:21:43.527Z,17.30
2022-09-14T19:24:13.257Z,17.30
2022-09-14T19:26:45.987Z,17.30
2022-09-14T19:29:20.094Z,17.30
2022-09-14T19:31:51.005Z,17.30
2022-09-14T19:34:19.897Z,17.30
2022-09-14T19:36:47.013Z,17.30
2022-09-14T19:39:16.747Z,17.20
2022-09-14T19:41:46.574Z,17.20
2022-09-14T19:44:14.586Z,17.20
2022-09-14T19:46:42.029Z,17.20
2022-09-14T19:49:19.970Z,17.20
2022-09-14T19:51:47.845Z,17.20
2022-09-14T19:54:17.542Z,17.20
2022-09-14T19:56:47.183Z,17.20
2022-09-14T19:59:14.946Z,17.10
2022-09-14T20:01:42.716Z,17.20
2022-09-14T20:04:43.321Z,17.10
2022-09-14T20:07:12.281Z,17.10
2022-09-14T20:09:39.343Z,17.10
2022-09-14T20:12:08.368Z,17.10
2022-09-14T20:14:37.710Z,17.00
2022-09-14T20:17:05.221Z,17.00
2022-09-14T20:19:32.936Z,17.00
2022-09-14T20:21:59.790Z,17.00
2022-09-14T20:24:28.739Z,17.00
2022-09-14T20:26:59.608Z,17.00
2022-09-14T20:29:31.637Z,17.00
2022-09-14T20:31:59.071Z,17.00
2022-09-14T20:34:29.692Z,17.00
2022-09-14T20:37:00.183Z,17.00
2022-09-14T20:39:30.466Z,16.90
2022-09-14T20:41:59.602Z,16.90
2022-09-14T20:44:26.441Z,16.90
2022-09-14T20:46:55.631Z,16.90
2022-09-14T20:49:23.796Z,16.90
2022-09-14T20:51:54.177Z,16.80
2022-09-14T20:54:21.462Z,16.90
2022-09-14T20:56:50.585Z,16.80
2022-09-14T20:59:18.980Z,16.80
2022-09-14T21:01:47.734Z,16.80
2022-09-14T21:04:22.848Z,16.80
2022-09-14T21:06:54.585Z,16.80
2022-09-14T21:09:24.487Z,16.80
2022-09-14T21:11:52.327Z,16.70
2022-09-14T21:14:20.439Z,16.70
2022-09-14T21:16:55.219Z,16.70
2022-09-14T21:19:26.873Z,16.70
2022-09-14T21:21:53.888Z,16.70
2022-09-14T21:24:22.846Z,16.70
2022-09-14T21:26:50.066Z,16.70
2022-09-14T21:29:24.625Z,16.60
2022-09-14T21:31:54.106Z,16.60
2022-09-14T21:34:21.062Z,16.60
2022-09-14T21:36:50.702Z,16.60
2022-09-14T21:39:22.929Z,16.60
2022-09-14T21:41:58.420Z,16.60
2022-09-14T21:44:35.262Z,16.50
2022-09-14T21:47:03.581Z,16.50
2022-09-14T21:49:32.936Z,16.50
2022-09-14T21:51:59.900Z,16.50
2022-09-14T21:54:29.763Z,16.50
2022-09-14T21:56:59.032Z,16.50
2022-09-14T21:59:25.802Z,16.40
2022-09-14T22:01:55.564Z,16.40
2022-09-14T22:04:25.239Z,16.40
2022-09-14T22:06:53.154Z,16.40
2022-09-14T22:09:24.390Z,16.40
2022-09-14T22:11:51.609Z,16.40
2022-09-14T22:14:24.925Z,16.40
2022-09-14T22:16:54.254Z,16.40
2022-09-14T22:19:25.170Z,16.30
2022-09-14T22:21:54.706Z,16.30
2022-09-14T22:24:36.445Z,16.30
2022-09-14T22:27:11.218Z,16.30
2022-09-14T22:29:40.604Z,16.20
2022-09-14T22:32:14.542Z,16.30
2022-09-14T22:34:49.435Z,16.20
2022-09-14T22:37:16.724Z,16.20
2022-09-14T22:39:46.849Z,16.20
2022-09-14T22:42:13.606Z,16.20
2022-09-14T22:44:42.488Z,16.20
2022-09-14T22:47:09.303Z,16.10
2022-09-14T22:49:36.064Z,16.20
2022-09-14T22:52:02.881Z,16.20
2022-09-14T22:54:31.984Z,16.10
2022-09-14T22:57:00.934Z,16.10
2022-09-14T22:59:29.766Z,16.10
2022-09-14T23:01:56.598Z,16.10
2022-09-14T23:04:23.401Z,16.00
2022-09-14T23:06:50.256Z,16.00
2022-09-14T23:09:21.890Z,16.00
2022-09-14T23:11:49.175Z,16.00
2022-09-14T23:14:17.271Z,15.90
2022-09-14T23:16:46.472Z,15.90
2022-09-14T23:19:18.308Z,15.90
2022-09-14T23:21:50.547Z,15.90
2022-09-14T23:24:17.489Z,15.90
2022-09-14T23:26:44.308Z,15.90
2022-09-14T23:29:14.980Z,15.90
2022-09-14T23:31:41.777Z,15.80
2022-09-14T23:34:08.818Z,15.80
2022-09-14T23:36:36.346Z,15.80
2022-09-14T23:39:05.505Z,15.80
2022-09-14T23:41:36.535Z,15.80
2022-09-14T23:44:03.321Z,15.80
2022-09-14T23:46:32.348Z,15.80
2022-09-14T23:49:01.451Z,15.80
2022-09-14T23:51:28.168Z,15.80
2022-09-14T23:53:59.636Z,15.80
2022-09-14T23:56:28.503Z,15.80
2022-09-14T23:58:55.224Z,15.70
